createdAt,value
2017-11-26T00:00:39.841Z,99.77
2017-11-26T00:01:39.826Z,99.1
2017-11-26T00:02:39.820Z,99.2
2017-11-26T00:03:39.832Z,99.2
2017-11-26T00:04:39.801Z,98.49
2017-11-26T00:05:39.532Z,98.3
2017-11-26T00:06:39.524Z,98.49
2017-11-26T00:07:39.775Z,98.68
2017-11-26T00:08:39.764Z,98.68
2017-11-26T00:09:39.755Z,98.49
2017-11-26T00:10:39.485Z,98.06
2017-11-26T00:11:39.736Z,98.3
2017-11-26T00:12:39.725Z,98.49
2017-11-26T00:13:39.726Z,98.3
2017-11-26T00:14:39.705Z,98.68
2017-11-26T00:15:39.699Z,98.58
2017-11-26T00:16:39.690Z,98.49
2017-11-26T00:17:39.679Z,98.21
2017-11-26T00:18:39.667Z,98.3
2017-11-26T00:19:39.401Z,98.06
2017-11-26T00:20:39.653Z,98.35
2017-11-26T00:21:39.744Z,98.54
2017-11-26T00:22:39.632Z,97.59
2017-11-26T00:23:39.622Z,97.97
2017-11-26T00:24:39.617Z,98.25
2017-11-26T00:25:39.602Z,98.02
2017-11-26T00:26:39.596Z,97.4
2017-11-26T00:27:39.590Z,98.49
2017-11-26T00:28:39.574Z,97.45
2017-11-26T00:29:39.569Z,97.83
2017-11-26T00:30:39.296Z,98.02
2017-11-26T00:31:39.554Z,98.21
2017-11-26T00:32:39.536Z,98.3
2017-11-26T00:33:39.631Z,98.3
2017-11-26T00:34:39.260Z,98.02
2017-11-26T00:35:39.510Z,98.02
2017-11-26T00:36:39.242Z,97.92
2017-11-26T00:37:39.488Z,97.92
2017-11-26T00:38:39.223Z,97.92
2017-11-26T00:39:39.472Z,98.02
2017-11-26T00:40:39.465Z,97.35
2017-11-26T00:41:39.452Z,97.45
2017-11-26T00:42:39.441Z,97.64
2017-11-26T00:43:39.434Z,97.59
2017-11-26T00:44:39.431Z,97.83
2017-11-26T00:45:39.155Z,97.83
2017-11-26T00:46:39.506Z,97.64
2017-11-26T00:47:39.398Z,97.45
2017-11-26T00:48:39.386Z,97.35
2017-11-26T00:49:39.386Z,96.69
2017-11-26T00:50:39.372Z,97.45
2017-11-26T00:51:39.367Z,97.54
2017-11-26T00:52:39.345Z,98.11
2017-11-26T00:53:39.345Z,98.11
2017-11-26T00:54:39.071Z,98.49
2017-11-26T00:55:39.421Z,98.39
2017-11-26T00:56:39.315Z,98.3
2017-11-26T00:57:39.399Z,97.83
2017-11-26T00:58:39.034Z,98.3
2017-11-26T00:59:39.284Z,98.39
2017-11-26T01:00:39.275Z,98.39
2017-11-26T01:01:39.264Z,98.77
2017-11-26T01:02:39.258Z,98.68
2017-11-26T01:03:39.252Z,98.49
2017-11-26T01:04:39.244Z,98.68
2017-11-26T01:05:39.228Z,97.83
2017-11-26T01:06:39.224Z,98.58
2017-11-26T01:07:39.223Z,98.3
2017-11-26T01:08:39.201Z,98.49
2017-11-26T01:09:39.189Z,98.68
2017-11-26T01:10:39.185Z,98.68
2017-11-26T01:11:39.170Z,98.58
2017-11-26T01:12:39.161Z,98.87
2017-11-26T01:13:39.164Z,99.53
2017-11-26T01:14:39.141Z,99.06
2017-11-26T01:15:39.133Z,99.25
2017-11-26T01:16:39.123Z,99.25
2017-11-26T01:17:39.126Z,99.53
2017-11-26T01:18:38.945Z,99.25
2017-11-26T01:19:39.098Z,99.72
2017-11-26T01:20:39.087Z,99.72
2017-11-26T01:21:39.096Z,99.63
2017-11-26T01:22:39.073Z,99.82
2017-11-26T01:23:39.158Z,99.44
2017-11-26T01:24:38.791Z,99.25
2017-11-26T01:25:39.039Z,99.63
2017-11-26T01:26:39.052Z,99.53
2017-11-26T01:27:39.034Z,99.63
2017-11-26T01:28:39.115Z,99.63
2017-11-26T01:29:39.003Z,99.63
2017-11-26T01:30:38.733Z,99.63
2017-11-26T01:31:38.827Z,99.72
2017-11-26T01:32:38.990Z,99.63
2017-11-26T01:33:38.703Z,99.72
2017-11-26T01:34:38.955Z,99.53
2017-11-26T01:35:38.945Z,99.34
2017-11-26T01:36:38.937Z,99.29
2017-11-26T01:37:38.946Z,99.15
2017-11-26T01:38:38.662Z,99.53
2017-11-26T01:39:38.650Z,99.15
2017-11-26T01:40:38.901Z,99.34
2017-11-26T01:41:38.635Z,99.06
2017-11-26T01:42:38.981Z,98.63
2017-11-26T01:43:38.612Z,98.58
2017-11-26T01:44:38.862Z,98.54
2017-11-26T01:45:38.951Z,98.82
2017-11-26T01:46:38.842Z,99.29
2017-11-26T01:47:38.838Z,99.15
2017-11-26T01:48:38.825Z,99.2
2017-11-26T01:49:38.554Z,98.68
2017-11-26T01:50:38.648Z,98.39
2017-11-26T01:51:38.796Z,98.58
2017-11-26T01:52:38.797Z,98.58
2017-11-26T01:53:38.778Z,98.77
2017-11-26T01:54:38.766Z,97.87
2017-11-26T01:55:38.774Z,98.16
2017-11-26T01:56:38.751Z,97.68
2017-11-26T01:57:38.845Z,97.02
2017-11-26T01:58:38.747Z,96.45
2017-11-26T01:59:38.724Z,95.6
2017-11-26T02:00:38.454Z,94.74
2017-11-26T02:01:38.708Z,94.74
2017-11-26T02:02:38.695Z,94.27
2017-11-26T02:03:38.683Z,94.37
2017-11-26T02:04:38.675Z,94.37
2017-11-26T02:05:38.667Z,93.89
2017-11-26T02:06:38.664Z,93.99
2017-11-26T02:07:38.396Z,93.99
2017-11-26T02:08:38.636Z,93.51
2017-11-26T02:09:38.627Z,93.32
2017-11-26T02:10:38.618Z,93.32
2017-11-26T02:11:38.609Z,93.32
2017-11-26T02:12:38.598Z,93.23
2017-11-26T02:13:38.689Z,93.18
2017-11-26T02:14:38.591Z,93.42
2017-11-26T02:15:38.578Z,93.61
2017-11-26T02:16:38.300Z,93.42
2017-11-26T02:17:38.550Z,93.32
2017-11-26T02:18:38.541Z,93.51
2017-11-26T02:19:38.538Z,93.51
2017-11-26T02:20:38.267Z,93.32
2017-11-26T02:21:38.518Z,92.94
2017-11-26T02:22:38.503Z,93.13
2017-11-26T02:23:38.237Z,92.85
2017-11-26T02:24:38.588Z,92.47
2017-11-26T02:25:38.215Z,92.28
2017-11-26T02:26:38.476Z,92.28
2017-11-26T02:27:38.455Z,92.94
2017-11-26T02:28:38.448Z,92.76
2017-11-26T02:29:38.438Z,92.57
2017-11-26T02:30:38.438Z,92.61
2017-11-26T02:31:38.443Z,92.66
2017-11-26T02:32:38.149Z,92.38
2017-11-26T02:33:38.400Z,92.57
2017-11-26T02:34:38.388Z,92.9
2017-11-26T02:35:38.378Z,92.94
2017-11-26T02:36:38.373Z,92.94
2017-11-26T02:37:38.359Z,92.85
2017-11-26T02:38:38.089Z,93.42
2017-11-26T02:39:38.343Z,92.85
2017-11-26T02:40:38.443Z,92.94
2017-11-26T02:41:38.333Z,93.7
2017-11-26T02:42:38.327Z,92.94
2017-11-26T02:43:38.307Z,93.7
2017-11-26T02:44:38.297Z,93.51
2017-11-26T02:45:38.336Z,93.61
2017-11-26T02:46:38.278Z,93.42
2017-11-26T02:47:38.264Z,93.89
2017-11-26T02:48:37.995Z,93.89
2017-11-26T02:49:37.990Z,93.42
2017-11-26T02:50:38.440Z,94.27
2017-11-26T02:51:37.970Z,94.7
2017-11-26T02:52:38.223Z,95.07
2017-11-26T02:53:37.948Z,94.79
2017-11-26T02:54:37.942Z,94.89
2017-11-26T02:55:38.186Z,95.07
2017-11-26T02:56:38.179Z,94.98
2017-11-26T02:57:37.910Z,94.98
2017-11-26T02:58:38.159Z,95.65
2017-11-26T02:59:38.257Z,95.65
2017-11-26T03:00:37.879Z,96.12
2017-11-26T03:01:38.128Z,96.12
2017-11-26T03:02:38.131Z,96.12
2017-11-26T03:03:37.853Z,96.31
2017-11-26T03:04:38.104Z,96.69
2017-11-26T03:05:38.091Z,96.78
2017-11-26T03:06:37.921Z,97.07
2017-11-26T03:07:38.072Z,97.16
2017-11-26T03:08:38.077Z,97.45
2017-11-26T03:09:38.061Z,97.45
2017-11-26T03:10:38.043Z,97.83
2017-11-26T03:11:38.033Z,97.45
2017-11-26T03:12:37.776Z,97.83
2017-11-26T03:13:37.757Z,97.92
2017-11-26T03:14:38.010Z,97.73
2017-11-26T03:15:37.737Z,97.54
2017-11-26T03:16:38.088Z,98.3
2017-11-26T03:17:37.722Z,98.49
2017-11-26T03:18:37.711Z,98.49
2017-11-26T03:19:37.957Z,98.11
2017-11-26T03:20:37.951Z,98.68
2017-11-26T03:21:37.945Z,98.77
2017-11-26T03:22:37.672Z,98.49
2017-11-26T03:23:37.919Z,98.68
2017-11-26T03:24:37.911Z,98.58
2017-11-26T03:25:37.658Z,98.87
2017-11-26T03:26:37.890Z,99.34
2017-11-26T03:27:37.880Z,98.49
2017-11-26T03:28:37.975Z,99.34
2017-11-26T03:29:37.605Z,98.49
2017-11-26T03:30:37.859Z,99.34
2017-11-26T03:31:37.588Z,99.34
2017-11-26T03:32:37.836Z,99.15
2017-11-26T03:33:37.831Z,99.25
2017-11-26T03:34:37.557Z,99.25
2017-11-26T03:35:37.548Z,99.15
2017-11-26T03:36:37.797Z,99.15
2017-11-26T03:37:37.811Z,99.15
2017-11-26T03:38:37.521Z,99.15
2017-11-26T03:39:37.509Z,99.53
2017-11-26T03:40:37.765Z,99.63
2017-11-26T03:41:37.754Z,99.99
2017-11-26T03:42:37.851Z,99.99
2017-11-26T03:43:37.759Z,99.99
2017-11-26T03:44:37.463Z,99.91
2017-11-26T03:45:37.452Z,99.99
2017-11-26T03:46:37.702Z,99.99
2017-11-26T03:47:37.435Z,99.99
2017-11-26T03:48:37.683Z,99.99
2017-11-26T03:49:37.671Z,99.99
2017-11-26T03:50:37.408Z,99.99
2017-11-26T03:51:37.660Z,99.99
2017-11-26T03:52:37.645Z,99.99
2017-11-26T03:53:37.633Z,99.99
2017-11-26T03:54:37.629Z,99.99
2017-11-26T03:55:37.358Z,99.99
2017-11-26T03:56:37.609Z,99.91
2017-11-26T03:57:37.600Z,99.72
2017-11-26T03:58:37.597Z,99.99
2017-11-26T03:59:37.323Z,99.25
2017-11-26T04:00:37.581Z,99.63
2017-11-26T04:01:37.561Z,99.25
2017-11-26T04:02:37.553Z,99.34
2017-11-26T04:03:37.283Z,98.49
2017-11-26T04:04:37.532Z,98.3
2017-11-26T04:05:37.522Z,98.02
2017-11-26T04:06:37.515Z,97.73
2017-11-26T04:07:37.242Z,98.02
2017-11-26T04:08:37.235Z,97.92
2017-11-26T04:09:37.227Z,98.21
2017-11-26T04:10:37.474Z,97.26
2017-11-26T04:11:37.468Z,97.26
2017-11-26T04:12:37.463Z,96.69
2017-11-26T04:13:37.449Z,96.97
2017-11-26T04:14:37.178Z,96.5
2017-11-26T04:15:37.429Z,96.73
2017-11-26T04:16:37.161Z,96.17
2017-11-26T04:17:37.410Z,95.41
2017-11-26T04:18:37.419Z,96.26
2017-11-26T04:19:37.391Z,96.07
2017-11-26T04:20:37.121Z,95.69
2017-11-26T04:21:37.113Z,95.88
2017-11-26T04:22:37.369Z,95.79
2017-11-26T04:23:37.353Z,95.5
2017-11-26T04:24:37.341Z,95.22
2017-11-26T04:25:37.333Z,95.69
2017-11-26T04:26:37.323Z,95.6
2017-11-26T04:27:37.316Z,95.5
2017-11-26T04:28:37.305Z,95.69
2017-11-26T04:29:37.293Z,95.41
2017-11-26T04:30:37.027Z,95.5
2017-11-26T04:31:37.278Z,95.6
2017-11-26T04:32:37.269Z,95.5
2017-11-26T04:33:37.457Z,95.69
2017-11-26T04:34:37.252Z,95.69
2017-11-26T04:35:37.235Z,95.5
2017-11-26T04:36:37.230Z,95.31
2017-11-26T04:37:36.960Z,95.5
2017-11-26T04:38:37.211Z,95.5
2017-11-26T04:39:37.202Z,95.31
2017-11-26T04:40:37.191Z,94.74
2017-11-26T04:41:37.182Z,94.56
2017-11-26T04:42:36.913Z,94.74
2017-11-26T04:43:37.163Z,94.46
2017-11-26T04:44:36.899Z,94.65
2017-11-26T04:45:37.143Z,94.27
2017-11-26T04:46:37.138Z,94.27
2017-11-26T04:47:37.124Z,93.37
2017-11-26T04:48:37.115Z,93.75
2017-11-26T04:49:37.108Z,93.75
2017-11-26T04:50:37.093Z,93.84
2017-11-26T04:51:37.088Z,93.65
2017-11-26T04:52:37.076Z,93.84
2017-11-26T04:53:37.070Z,93.94
2017-11-26T04:54:37.069Z,93.75
2017-11-26T04:55:37.046Z,93.75
2017-11-26T04:56:37.048Z,93.65
2017-11-26T04:57:37.029Z,94.23
2017-11-26T04:58:37.027Z,93.89
2017-11-26T04:59:37.021Z,94.46
2017-11-26T05:00:36.741Z,93.42
2017-11-26T05:01:36.992Z,93.89
2017-11-26T05:02:36.984Z,93.7
2017-11-26T05:03:36.972Z,93.51
2017-11-26T05:04:36.964Z,94.56
2017-11-26T05:05:36.696Z,95.12
2017-11-26T05:06:37.058Z,94.65
2017-11-26T05:07:36.674Z,94.93
2017-11-26T05:08:36.925Z,94.56
2017-11-26T05:09:36.915Z,94.08
2017-11-26T05:10:36.647Z,94.18
2017-11-26T05:11:36.896Z,94.37
2017-11-26T05:12:36.886Z,94.46
2017-11-26T05:13:36.618Z,94.37
2017-11-26T05:14:36.609Z,94.27
2017-11-26T05:15:36.863Z,94.46
2017-11-26T05:16:36.847Z,94.18
2017-11-26T05:17:36.679Z,94.93
2017-11-26T05:18:36.930Z,94.93
2017-11-26T05:19:36.557Z,94.84
2017-11-26T05:20:36.910Z,94.65
2017-11-26T05:21:36.801Z,94.93
2017-11-26T05:22:36.792Z,94.84
2017-11-26T05:23:36.521Z,95.69
2017-11-26T05:24:36.786Z,95.22
2017-11-26T05:25:36.760Z,94.84
2017-11-26T05:26:36.751Z,95.03
2017-11-26T05:27:36.741Z,94.93
2017-11-26T05:28:36.733Z,95.6
2017-11-26T05:29:36.721Z,95.69
2017-11-26T05:30:36.717Z,95.79
2017-11-26T05:31:36.709Z,95.69
2017-11-26T05:32:36.696Z,95.6
2017-11-26T05:33:36.683Z,95.6
2017-11-26T05:34:36.778Z,96.26
2017-11-26T05:35:36.406Z,95.98
2017-11-26T05:36:36.654Z,95.88
2017-11-26T05:37:36.650Z,96.45
2017-11-26T05:38:36.636Z,95.98
2017-11-26T05:39:36.638Z,96.83
2017-11-26T05:40:36.624Z,96.73
2017-11-26T05:41:36.606Z,97.11
2017-11-26T05:42:36.339Z,96.64
2017-11-26T05:43:36.589Z,96.73
2017-11-26T05:44:36.579Z,96.92
2017-11-26T05:45:36.570Z,97.49
2017-11-26T05:46:36.563Z,97.59
2017-11-26T05:47:36.291Z,97.68
2017-11-26T05:48:36.551Z,97.97
2017-11-26T05:49:36.274Z,97.87
2017-11-26T05:50:36.263Z,97.87
2017-11-26T05:51:36.510Z,97.68
2017-11-26T05:52:36.257Z,97.21
2017-11-26T05:53:36.491Z,98.16
2017-11-26T05:54:36.485Z,97.78
2017-11-26T05:55:36.474Z,98.72
2017-11-26T05:56:36.474Z,98.35
2017-11-26T05:57:36.463Z,99.1
2017-11-26T05:58:36.185Z,99.1
2017-11-26T05:59:36.172Z,99.1
2017-11-26T06:00:36.424Z,99.67
2017-11-26T06:01:36.158Z,99.29
2017-11-26T06:02:36.147Z,99.67
2017-11-26T06:03:36.393Z,99.77
2017-11-26T06:04:36.382Z,99.58
2017-11-26T06:05:36.377Z,99.99
2017-11-26T06:06:36.377Z,99.67
2017-11-26T06:07:36.361Z,99.99
2017-11-26T06:08:36.345Z,99.96
2017-11-26T06:09:36.337Z,99.99
2017-11-26T06:10:36.335Z,99.99
2017-11-26T06:11:36.316Z,99.99
2017-11-26T06:12:36.410Z,99.99
2017-11-26T06:13:36.147Z,99.99
2017-11-26T06:14:36.030Z,99.99
2017-11-26T06:15:36.019Z,99.99
2017-11-26T06:16:36.267Z,99.99
2017-11-26T06:17:36.263Z,99.99
2017-11-26T06:18:36.255Z,99.99
2017-11-26T06:19:36.250Z,99.99
2017-11-26T06:20:36.233Z,99.99
2017-11-26T06:21:36.221Z,99.99
2017-11-26T06:22:36.213Z,99.99
2017-11-26T06:23:35.946Z,99.99
2017-11-26T06:24:36.192Z,99.99
2017-11-26T06:25:36.182Z,99.99
2017-11-26T06:26:36.175Z,99.99
2017-11-26T06:27:35.907Z,99.99
2017-11-26T06:28:36.155Z,99.99
2017-11-26T06:29:36.147Z,99.99
2017-11-26T06:30:35.880Z,99.99
2017-11-26T06:31:36.133Z,99.99
2017-11-26T06:32:36.115Z,99.99
2017-11-26T06:33:36.114Z,99.99
2017-11-26T06:34:36.107Z,99.99
2017-11-26T06:35:36.086Z,99.99
2017-11-26T06:36:36.092Z,99.99
2017-11-26T06:37:36.088Z,99.99
2017-11-26T06:38:36.160Z,99.99
2017-11-26T06:39:36.050Z,99.99
2017-11-26T06:40:36.077Z,99.99
2017-11-26T06:41:36.040Z,99.99
2017-11-26T06:42:36.060Z,99.99
2017-11-26T06:43:35.854Z,99.99
2017-11-26T06:44:36.000Z,99.99
2017-11-26T06:45:35.999Z,99.99
2017-11-26T06:46:35.724Z,99.99
2017-11-26T06:47:35.715Z,99.99
2017-11-26T06:48:36.064Z,99.99
2017-11-26T06:49:35.957Z,99.99
2017-11-26T06:50:35.945Z,99.99
2017-11-26T06:51:35.933Z,99.99
2017-11-26T06:52:35.925Z,99.99
2017-11-26T06:53:35.919Z,99.99
2017-11-26T06:54:35.912Z,99.99
2017-11-26T06:55:35.897Z,99.99
2017-11-26T06:56:35.890Z,99.99
2017-11-26T06:57:35.878Z,99.99
2017-11-26T06:58:35.867Z,99.99
2017-11-26T06:59:35.600Z,99.99
2017-11-26T07:00:35.849Z,99.99
2017-11-26T07:01:35.838Z,99.29
2017-11-26T07:02:35.838Z,98.82
2017-11-26T07:03:35.827Z,99.48
2017-11-26T07:04:35.811Z,99.67
2017-11-26T07:05:35.799Z,99.39
2017-11-26T07:06:35.792Z,99.58
2017-11-26T07:07:35.522Z,99.58
2017-11-26T07:08:35.512Z,99.53
2017-11-26T07:09:35.762Z,98.35
2017-11-26T07:10:35.761Z,98.25
2017-11-26T07:11:35.745Z,96.73
2017-11-26T07:12:35.731Z,96.36
2017-11-26T07:13:35.732Z,96.26
2017-11-26T07:14:35.718Z,95.5
2017-11-26T07:15:35.711Z,95.03
2017-11-26T07:16:35.440Z,94.93
2017-11-26T07:17:35.694Z,94.84
2017-11-26T07:18:35.674Z,94.93
2017-11-26T07:19:35.671Z,94.74
2017-11-26T07:20:35.663Z,95.41
2017-11-26T07:21:35.657Z,96.17
2017-11-26T07:22:35.640Z,95.79
2017-11-26T07:23:35.626Z,96.73
2017-11-26T07:24:35.634Z,96.36
2017-11-26T07:25:35.612Z,96.92
2017-11-26T07:26:35.343Z,96.69
2017-11-26T07:27:35.589Z,97.02
2017-11-26T07:28:35.580Z,97.26
2017-11-26T07:29:35.573Z,97.07
2017-11-26T07:30:35.309Z,97.73
2017-11-26T07:31:35.557Z,97.54
2017-11-26T07:32:35.553Z,97.26
2017-11-26T07:33:35.534Z,98.02
2017-11-26T07:34:35.524Z,97.92
2017-11-26T07:35:35.514Z,97.92
2017-11-26T07:36:35.505Z,98.02
2017-11-26T07:37:35.496Z,97.92
2017-11-26T07:38:35.485Z,97.92
2017-11-26T07:39:35.475Z,98.02
2017-11-26T07:40:35.466Z,98.77
2017-11-26T07:41:35.198Z,98.58
2017-11-26T07:42:35.187Z,98.39
2017-11-26T07:43:35.456Z,98.49
2017-11-26T07:44:35.440Z,98.87
2017-11-26T07:45:35.439Z,98.96
2017-11-26T07:46:35.407Z,99.15
2017-11-26T07:47:35.415Z,99.15
2017-11-26T07:48:35.395Z,99.34
2017-11-26T07:49:35.386Z,99.34
2017-11-26T07:50:35.377Z,99.15
2017-11-26T07:51:35.364Z,99.15
2017-11-26T07:52:35.093Z,99.25
2017-11-26T07:53:35.342Z,99.34
2017-11-26T07:54:35.334Z,98.11
2017-11-26T07:55:35.065Z,98.58
2017-11-26T07:56:35.414Z,98.39
2017-11-26T07:57:35.307Z,98.39
2017-11-26T07:58:35.299Z,98.87
2017-11-26T07:59:35.026Z,98.77
2017-11-26T08:00:35.278Z,98.49
2017-11-26T08:01:35.369Z,99.15
2017-11-26T08:02:34.999Z,99.34
2017-11-26T08:03:35.257Z,99.34
2017-11-26T08:04:34.978Z,99.15
2017-11-26T08:05:35.229Z,99.25
2017-11-26T08:06:34.959Z,99.25
2017-11-26T08:07:34.949Z,99.15
2017-11-26T08:08:35.198Z,98.39
2017-11-26T08:09:35.289Z,98.49
2017-11-26T08:10:35.181Z,98.87
2017-11-26T08:11:35.172Z,98.96
2017-11-26T08:12:35.171Z,98.87
2017-11-26T08:13:35.157Z,98.21
2017-11-26T08:14:35.143Z,98.77
2017-11-26T08:15:35.135Z,98.3
2017-11-26T08:16:34.869Z,98.39
2017-11-26T08:17:34.863Z,98.49
2017-11-26T08:18:35.212Z,98.58
2017-11-26T08:19:35.099Z,99.15
2017-11-26T08:20:35.127Z,99.53
2017-11-26T08:21:34.918Z,99.15
2017-11-26T08:22:34.808Z,99.25
2017-11-26T08:23:35.066Z,99.34
2017-11-26T08:24:35.047Z,98.39
2017-11-26T08:25:35.042Z,98.39
2017-11-26T08:26:35.046Z,97.92
2017-11-26T08:27:35.120Z,97.83
2017-11-26T08:28:35.012Z,98.11
2017-11-26T08:29:35.001Z,97.64
2017-11-26T08:30:34.993Z,97.45
2017-11-26T08:31:34.986Z,97.73
2017-11-26T08:32:34.715Z,96.78
2017-11-26T08:33:34.961Z,95.84
2017-11-26T08:34:35.065Z,95.65
2017-11-26T08:35:34.952Z,95.17
2017-11-26T08:36:34.938Z,94.98
2017-11-26T08:37:34.924Z,94.04
2017-11-26T08:38:35.019Z,93.56
2017-11-26T08:39:34.914Z,93.75
2017-11-26T08:40:34.640Z,93.75
2017-11-26T08:41:34.887Z,94.04
2017-11-26T08:42:34.879Z,93.84
2017-11-26T08:43:34.868Z,93.84
2017-11-26T08:44:34.858Z,93.94
2017-11-26T08:45:34.960Z,94.13
2017-11-26T08:46:34.594Z,94.51
2017-11-26T08:47:34.829Z,94.51
2017-11-26T08:48:34.561Z,94.6
2017-11-26T08:49:34.814Z,94.42
2017-11-26T08:50:34.804Z,93.84
2017-11-26T08:51:34.797Z,93.75
2017-11-26T08:52:34.784Z,93.84
2017-11-26T08:53:34.521Z,94.79
2017-11-26T08:54:34.763Z,94.42
2017-11-26T08:55:34.856Z,94.79
2017-11-26T08:56:34.743Z,94.51
2017-11-26T08:57:34.476Z,94.98
2017-11-26T08:58:34.725Z,95.07
2017-11-26T08:59:34.727Z,95.84
2017-11-26T09:00:34.710Z,95.26
2017-11-26T09:01:34.700Z,95.74
2017-11-26T09:02:34.688Z,95.5
2017-11-26T09:03:34.678Z,95.45
2017-11-26T09:04:34.411Z,95.6
2017-11-26T09:05:34.665Z,95.5
2017-11-26T09:06:34.393Z,95.79
2017-11-26T09:07:34.649Z,95.5
2017-11-26T09:08:34.632Z,95.5
2017-11-26T09:09:34.620Z,95.79
2017-11-26T09:10:34.356Z,95.69
2017-11-26T09:11:34.345Z,95.41
2017-11-26T09:12:34.592Z,96.17
2017-11-26T09:13:34.581Z,95.98
2017-11-26T09:14:34.319Z,95.88
2017-11-26T09:15:34.668Z,95.12
2017-11-26T09:16:34.560Z,94.65
2017-11-26T09:17:34.287Z,94.56
2017-11-26T09:18:34.539Z,95.12
2017-11-26T09:19:34.527Z,94.84
2017-11-26T09:20:34.523Z,95.03
2017-11-26T09:21:34.514Z,95.12
2017-11-26T09:22:34.498Z,94.56
2017-11-26T09:23:34.491Z,93.8
2017-11-26T09:24:34.477Z,93.61
2017-11-26T09:25:34.220Z,93.04
2017-11-26T09:26:34.478Z,92.57
2017-11-26T09:27:34.195Z,92.85
2017-11-26T09:28:34.442Z,92.57
2017-11-26T09:29:34.439Z,92.28
2017-11-26T09:30:34.426Z,91.9
2017-11-26T09:31:34.513Z,91.61
2017-11-26T09:32:34.406Z,89.06
2017-11-26T09:33:34.397Z,88.58
2017-11-26T09:34:34.387Z,88.87
2017-11-26T09:35:34.120Z,89.43
2017-11-26T09:36:34.369Z,89.91
2017-11-26T09:37:34.099Z,90.19
2017-11-26T09:38:34.351Z,90.29
2017-11-26T09:39:34.342Z,90
2017-11-26T09:40:34.332Z,88.68
2017-11-26T09:41:34.321Z,88.2
2017-11-26T09:42:34.420Z,86.3
2017-11-26T09:43:34.332Z,86.4
2017-11-26T09:44:34.036Z,87.16
2017-11-26T09:45:34.025Z,87.54
2017-11-26T09:46:34.274Z,88.39
2017-11-26T09:47:34.108Z,86.68
2017-11-26T09:48:33.998Z,85.64
2017-11-26T09:49:33.990Z,85.74
2017-11-26T09:50:33.983Z,84.41
2017-11-26T09:51:33.984Z,82.23
2017-11-26T09:52:34.319Z,80.9
2017-11-26T09:53:33.953Z,80.52
2017-11-26T09:54:34.202Z,80.14
2017-11-26T09:55:33.934Z,79.28
2017-11-26T09:56:34.182Z,79.47
2017-11-26T09:57:34.182Z,80.04
2017-11-26T09:58:34.163Z,79.85
2017-11-26T09:59:34.155Z,79.76
2017-11-26T10:00:34.145Z,80.71
2017-11-26T10:01:34.136Z,80.04
2017-11-26T10:02:34.131Z,80.71
2017-11-26T10:03:34.118Z,80.52
2017-11-26T10:04:33.848Z,80.14
2017-11-26T10:05:33.848Z,80.14
2017-11-26T10:06:34.090Z,79.85
2017-11-26T10:07:34.082Z,79.66
2017-11-26T10:08:34.074Z,79.28
2017-11-26T10:09:33.803Z,78.91
2017-11-26T10:10:34.062Z,78.53
2017-11-26T10:11:34.042Z,78.43
2017-11-26T10:12:34.035Z,78.72
2017-11-26T10:13:34.025Z,78.43
2017-11-26T10:14:34.017Z,78.15
2017-11-26T10:15:34.109Z,78.24
2017-11-26T10:16:34.000Z,77.96
2017-11-26T10:17:33.727Z,78.53
2017-11-26T10:18:33.719Z,78.53
2017-11-26T10:19:33.711Z,78.53
2017-11-26T10:20:33.700Z,78.15
2017-11-26T10:21:33.953Z,77.86
2017-11-26T10:22:34.044Z,77.77
2017-11-26T10:23:33.931Z,77.86
2017-11-26T10:24:33.930Z,78.34
2017-11-26T10:25:33.656Z,77.86
2017-11-26T10:26:33.907Z,76.92
2017-11-26T10:27:33.920Z,76.92
2017-11-26T10:28:33.625Z,76.06
2017-11-26T10:29:33.617Z,76.34
2017-11-26T10:30:33.867Z,76.63
2017-11-26T10:31:33.699Z,76.73
2017-11-26T10:32:33.589Z,76.92
2017-11-26T10:33:33.939Z,77.2
2017-11-26T10:34:33.570Z,77.39
2017-11-26T10:35:33.847Z,76.54
2017-11-26T10:36:33.815Z,76.63
2017-11-26T10:37:33.800Z,75.87
2017-11-26T10:38:33.792Z,75.59
2017-11-26T10:39:33.881Z,75.11
2017-11-26T10:40:33.771Z,74.92
2017-11-26T10:41:33.518Z,75.78
2017-11-26T10:42:33.752Z,76.15
2017-11-26T10:43:33.489Z,75.87
2017-11-26T10:44:33.736Z,75.68
2017-11-26T10:45:33.467Z,74.73
2017-11-26T10:46:33.715Z,74.26
2017-11-26T10:47:33.709Z,74.26
2017-11-26T10:48:33.807Z,74.16
2017-11-26T10:49:33.429Z,74.35
2017-11-26T10:50:33.420Z,75.21
2017-11-26T10:51:33.673Z,74.64
2017-11-26T10:52:33.400Z,75.4
2017-11-26T10:53:33.661Z,75.02
2017-11-26T10:54:33.649Z,75.11
2017-11-26T10:55:33.632Z,74.73
2017-11-26T10:56:33.622Z,73.6
2017-11-26T10:57:33.356Z,72.36
2017-11-26T10:58:33.608Z,71.98
2017-11-26T10:59:33.600Z,71.51
2017-11-26T11:00:33.593Z,70.84
2017-11-26T11:01:33.575Z,71.41
2017-11-26T11:02:33.568Z,72.14
2017-11-26T11:03:33.557Z,71.57
2017-11-26T11:04:33.548Z,72.33
2017-11-26T11:05:33.539Z,73.18
2017-11-26T11:06:33.528Z,73.12
2017-11-26T11:07:33.618Z,73.03
2017-11-26T11:08:33.526Z,72.08
2017-11-26T11:09:33.509Z,72.17
2017-11-26T11:10:33.493Z,71.51
2017-11-26T11:11:33.491Z,71.51
2017-11-26T11:12:33.473Z,71.22
2017-11-26T11:13:33.471Z,71.51
2017-11-26T11:14:33.450Z,71.6
2017-11-26T11:15:33.454Z,72.08
2017-11-26T11:16:33.432Z,72.08
2017-11-26T11:17:33.423Z,71.98
2017-11-26T11:18:33.417Z,71.41
2017-11-26T11:19:33.158Z,71.13
2017-11-26T11:20:33.395Z,71.32
2017-11-26T11:21:33.127Z,71.41
2017-11-26T11:22:33.376Z,71.13
2017-11-26T11:23:33.366Z,71.41
2017-11-26T11:24:33.358Z,71.32
2017-11-26T11:25:33.349Z,71.8
2017-11-26T11:26:33.080Z,71.55
2017-11-26T11:27:33.328Z,70.78
2017-11-26T11:28:33.327Z,70.59
2017-11-26T11:29:33.312Z,70.5
2017-11-26T11:30:33.301Z,70.88
2017-11-26T11:31:33.038Z,70.78
2017-11-26T11:32:33.279Z,71.36
2017-11-26T11:33:33.277Z,71.17
2017-11-26T11:34:33.264Z,71.45
2017-11-26T11:35:33.256Z,70.69
2017-11-26T11:36:32.984Z,70.5
2017-11-26T11:37:33.234Z,70.98
2017-11-26T11:38:33.226Z,70.78
2017-11-26T11:39:33.213Z,70.84
2017-11-26T11:40:32.945Z,70.98
2017-11-26T11:41:33.198Z,71.26
2017-11-26T11:42:33.185Z,71.17
2017-11-26T11:43:33.281Z,71.36
2017-11-26T11:44:33.164Z,70.69
2017-11-26T11:45:32.900Z,70.4
2017-11-26T11:46:33.156Z,70.4
2017-11-26T11:47:33.235Z,70.98
2017-11-26T11:48:32.875Z,70.4
2017-11-26T11:49:33.116Z,70.69
2017-11-26T11:50:33.120Z,70.5
2017-11-26T11:51:32.841Z,70.78
2017-11-26T11:52:33.100Z,70.69
2017-11-26T11:53:33.109Z,70.78
2017-11-26T11:54:33.171Z,70.59
2017-11-26T11:55:33.072Z,70.78
2017-11-26T11:56:32.792Z,70.31
2017-11-26T11:57:32.783Z,70.98
2017-11-26T11:58:33.049Z,70.88
2017-11-26T11:59:32.766Z,71.17
2017-11-26T12:00:32.756Z,70.88
2017-11-26T12:01:33.003Z,71.17
2017-11-26T12:02:32.735Z,71.22
2017-11-26T12:03:32.990Z,70.84
2017-11-26T12:04:32.978Z,70.65
2017-11-26T12:05:32.966Z,71.41
2017-11-26T12:06:32.953Z,71.13
2017-11-26T12:07:32.687Z,71.41
2017-11-26T12:08:32.935Z,71.41
2017-11-26T12:09:32.941Z,72.36
2017-11-26T12:10:32.918Z,71.7
2017-11-26T12:11:32.905Z,71.51
2017-11-26T12:12:32.640Z,71.22
2017-11-26T12:13:32.886Z,71.89
2017-11-26T12:14:32.886Z,72.36
2017-11-26T12:15:32.969Z,72.36
2017-11-26T12:16:32.598Z,72.36
2017-11-26T12:17:32.854Z,72.45
2017-11-26T12:18:32.939Z,73.03
2017-11-26T12:19:32.572Z,73.12
2017-11-26T12:20:32.816Z,73.6
2017-11-26T12:21:32.811Z,73.41
2017-11-26T12:22:32.800Z,73.97
2017-11-26T12:23:32.530Z,74.35
2017-11-26T12:24:32.777Z,74.16
2017-11-26T12:25:32.771Z,74.83
2017-11-26T12:26:32.502Z,74.54
2017-11-26T12:27:32.748Z,75.31
2017-11-26T12:28:32.481Z,75.02
2017-11-26T12:29:32.728Z,74.54
2017-11-26T12:30:32.729Z,74.26
2017-11-26T12:31:32.710Z,73.5
2017-11-26T12:32:32.440Z,73.97
2017-11-26T12:33:32.692Z,74.07
2017-11-26T12:34:32.692Z,74.26
2017-11-26T12:35:32.681Z,74.16
2017-11-26T12:36:32.659Z,74.26
2017-11-26T12:37:32.652Z,73.97
2017-11-26T12:38:32.382Z,73.97
2017-11-26T12:39:32.633Z,74.16
2017-11-26T12:40:32.621Z,73.41
2017-11-26T12:41:32.612Z,73.22
2017-11-26T12:42:32.342Z,72.36
2017-11-26T12:43:32.334Z,71.89
2017-11-26T12:44:32.585Z,71.7
2017-11-26T12:45:32.606Z,72.08
2017-11-26T12:46:32.565Z,72.36
2017-11-26T12:47:32.295Z,73.12
2017-11-26T12:48:32.546Z,73.69
2017-11-26T12:49:32.534Z,73.12
2017-11-26T12:50:32.523Z,72.17
2017-11-26T12:51:32.254Z,71.7
2017-11-26T12:52:32.504Z,71.89
2017-11-26T12:53:32.501Z,72.27
2017-11-26T12:54:32.485Z,73.03